createdAt,value
2023-05-21T00:01:27.144Z,13.41
2023-05-21T00:06:31.881Z,13.44
2023-05-21T00:11:37.865Z,13.42
2023-05-21T00:16:41.919Z,13.35
2023-05-21T00:21:47.058Z,13.34
2023-05-21T00:26:52.284Z,13.32
2023-05-21T00:31:56.710Z,13.31
2023-05-21T00:37:02.682Z,13.35
2023-05-21T00:42:10.047Z,13.39
2023-05-21T00:47:14.929Z,13.41
2023-05-21T00:52:20.477Z,13.42
2023-05-21T00:57:28.311Z,13.42
2023-05-21T01:02:34.805Z,13.42
2023-05-21T01:07:41.559Z,13.34
2023-05-21T01:12:48.954Z,13.33
2023-05-21T01:17:53.376Z,13.32
2023-05-21T01:22:59.704Z,13.26
2023-05-21T01:28:03.792Z,13.25
2023-05-21T01:33:14.336Z,13.26
2023-05-21T01:38:25.934Z,13.29
2023-05-21T01:43:30.605Z,13.35
2023-05-21T01:48:35.840Z,13.36
2023-05-21T01:53:41.994Z,13.35
2023-05-21T01:58:46.086Z,13.32
2023-05-21T02:03:51.054Z,13.31
2023-05-21T02:08:56.664Z,13.28
2023-05-21T02:14:01.060Z,13.24
2023-05-21T02:19:05.043Z,13.21
2023-05-21T02:24:11.356Z,13.20
2023-05-21T02:29:15.454Z,13.17
2023-05-21T02:34:20.997Z,13.15
2023-05-21T02:39:26.939Z,13.10
2023-05-21T02:44:31.586Z,13.11
2023-05-21T02:49:35.647Z,13.09
2023-05-21T02:54:40.956Z,13.07
2023-05-21T02:59:46.095Z,13.04
2023-05-21T03:04:51.695Z,13.04
2023-05-21T03:09:57.308Z,13.02
2023-05-21T03:15:01.711Z,12.94
2023-05-21T03:20:09.087Z,12.94
2023-05-21T03:25:15.834Z,12.99
2023-05-21T03:30:21.114Z,13.03
2023-05-21T03:35:48.048Z,13.05
2023-05-21T03:40:55.228Z,13.06
2023-05-21T03:46:00.397Z,13.10
2023-05-21T03:51:22.908Z,13.10
2023-05-21T03:56:28.708Z,13.15
2023-05-21T04:01:33.204Z,13.22
2023-05-21T04:06:38.686Z,13.30
2023-05-21T04:11:44.214Z,13.35
2023-05-21T04:16:49.409Z,13.47
2023-05-21T04:21:53.337Z,13.62
2023-05-21T04:27:01.616Z,13.79
2023-05-21T04:32:08.089Z,13.97
2023-05-21T04:37:12.124Z,14.11
2023-05-21T04:42:19.467Z,14.26
2023-05-21T04:47:23.845Z,14.39
2023-05-21T04:52:28.118Z,14.53
2023-05-21T04:57:33.431Z,14.70
2023-05-21T05:02:37.859Z,14.89
2023-05-21T05:07:42.830Z,15.09
2023-05-21T05:12:48.232Z,15.30
2023-05-21T05:17:53.010Z,15.44
2023-05-21T05:22:56.945Z,15.62
2023-05-21T05:28:03.291Z,15.78
2023-05-21T05:33:07.726Z,16.02
2023-05-21T05:38:13.601Z,16.15
2023-05-21T05:43:19.070Z,16.46
2023-05-21T05:48:23.712Z,16.64
2023-05-21T05:53:27.936Z,16.88
2023-05-21T05:58:35.249Z,17.16
2023-05-21T06:03:48.695Z,17.45
2023-05-21T06:08:55.705Z,17.62
2023-05-21T06:14:04.217Z,17.89
2023-05-21T06:19:08.659Z,17.94
2023-05-21T06:24:12.645Z,18.22
2023-05-21T06:29:18.822Z,18.54
2023-05-21T06:34:24.626Z,18.81
2023-05-21T06:39:30.461Z,19.01
2023-05-21T06:44:36.068Z,19.31
2023-05-21T06:50:07.110Z,19.69
2023-05-21T06:55:11.506Z,19.99
2023-05-21T07:00:39.347Z,20.27
2023-05-21T07:05:43.546Z,20.41
2023-05-21T07:10:47.869Z,20.55
2023-05-21T07:15:53.441Z,20.68
2023-05-21T07:20:58.334Z,20.40
2023-05-21T07:26:03.441Z,20.46
2023-05-21T07:31:13.153Z,20.61
2023-05-21T07:36:26.626Z,20.67
2023-05-21T07:41:30.964Z,20.74
2023-05-21T07:46:38.439Z,20.68
2023-05-21T07:51:43.137Z,20.76
2023-05-21T07:56:47.936Z,20.75
2023-05-21T08:02:10.255Z,20.78
2023-05-21T08:07:16.960Z,20.76
2023-05-21T08:12:21.455Z,20.96
2023-05-21T08:17:28.510Z,21.10
2023-05-21T08:22:32.633Z,21.27
2023-05-21T08:27:37.224Z,21.40
2023-05-21T08:32:44.501Z,21.49
2023-05-21T08:37:49.503Z,21.64
2023-05-21T08:43:02.316Z,21.79
2023-05-21T08:48:18.524Z,21.94
2023-05-21T08:53:27.970Z,22.04
2023-05-21T08:58:34.852Z,22.17
2023-05-21T09:03:41.935Z,22.33
2023-05-21T09:08:50.173Z,22.54
2023-05-21T09:14:06.468Z,22.43
2023-05-21T09:20:10.896Z,22.63
2023-05-21T09:25:17.973Z,22.55
2023-05-21T09:30:25.967Z,22.64
2023-05-21T09:35:36.242Z,22.90
2023-05-21T09:40:46.791Z,23.00
2023-05-21T09:45:53.333Z,23.17
2023-05-21T09:51:09.987Z,23.27
2023-05-21T09:56:13.923Z,23.40
2023-05-21T10:01:17.872Z,23.26
2023-05-21T10:06:25.364Z,23.44
2023-05-21T10:11:32.002Z,23.68
2023-05-21T10:16:37.215Z,23.74
2023-05-21T10:21:43.617Z,24.02
2023-05-21T10:26:48.040Z,23.87
2023-05-21T10:31:53.592Z,23.85
2023-05-21T10:37:00.508Z,24.02
2023-05-21T10:42:17.718Z,24.23
2023-05-21T10:47:44.077Z,24.66
2023-05-21T10:53:03.059Z,24.72
2023-05-21T10:58:22.414Z,25.12
2023-05-21T11:03:27.485Z,25.24
2023-05-21T11:08:36.340Z,25.00
2023-05-21T11:13:48.773Z,25.52
2023-05-21T11:19:02.829Z,25.34
2023-05-21T11:24:11.175Z,25.89
2023-05-21T11:29:16.271Z,25.38
2023-05-21T11:34:22.072Z,25.65
2023-05-21T11:39:27.363Z,25.97
2023-05-21T11:44:40.986Z,26.40
2023-05-21T11:49:46.006Z,26.12
2023-05-21T11:54:55.360Z,26.95
2023-05-21T12:00:01.497Z,27.11
2023-05-21T12:05:10.186Z,26.21
2023-05-21T12:10:16.159Z,26.22
2023-05-21T12:15:20.546Z,26.72
2023-05-21T12:20:28.812Z,27.06
2023-05-21T12:25:34.469Z,27.17
2023-05-21T12:30:38.850Z,26.47
2023-05-21T12:35:46.422Z,26.77
2023-05-21T12:40:52.551Z,27.21
2023-05-21T12:45:56.768Z,27.35
2023-05-21T12:51:01.145Z,27.30
2023-05-21T12:56:11.276Z,27.97
2023-05-21T13:01:15.701Z,27.41
2023-05-21T13:06:19.619Z,26.94
2023-05-21T13:11:25.756Z,27.33
2023-05-21T13:16:29.889Z,27.89
2023-05-21T13:21:34.339Z,27.60
2023-05-21T13:26:39.827Z,27.63
2023-05-21T13:31:44.212Z,28.38
2023-05-21T13:36:48.691Z,28.38
2023-05-21T13:41:54.717Z,28.06
2023-05-21T13:46:59.282Z,28.31
2023-05-21T13:52:04.138Z,27.27
2023-05-21T13:57:10.879Z,27.26
2023-05-21T14:02:15.130Z,27.29
2023-05-21T14:07:19.206Z,26.78
2023-05-21T14:12:24.877Z,26.83
2023-05-21T14:17:28.748Z,26.40
2023-05-21T14:22:33.075Z,26.60
2023-05-21T14:27:38.863Z,27.98
2023-05-21T14:32:43.024Z,28.16
2023-05-21T14:37:47.224Z,27.79
2023-05-21T14:42:53.367Z,28.40
2023-05-21T14:47:57.464Z,27.39
2023-05-21T14:53:04.588Z,26.35
2023-05-21T14:58:10.057Z,27.49
2023-05-21T15:03:14.022Z,27.82
2023-05-21T15:08:17.947Z,27.35
2023-05-21T15:13:23.330Z,26.05
2023-05-21T15:18:30.699Z,25.14
2023-05-21T15:23:34.884Z,26.64
2023-05-21T15:28:40.288Z,27.27
2023-05-21T15:33:44.441Z,27.76
2023-05-21T15:38:48.361Z,27.74
2023-05-21T15:43:54.213Z,27.49
2023-05-21T15:48:58.361Z,26.16
2023-05-21T15:54:02.273Z,25.14
2023-05-21T15:59:08.990Z,24.92
2023-05-21T16:04:13.495Z,24.74
2023-05-21T16:09:17.724Z,24.40
2023-05-21T16:14:23.690Z,24.37
2023-05-21T16:19:28.565Z,24.21
2023-05-21T16:24:32.706Z,23.98
2023-05-21T16:29:40.725Z,23.84
2023-05-21T16:34:45.237Z,23.65
2023-05-21T16:39:49.110Z,23.44
2023-05-21T16:44:54.990Z,23.40
2023-05-21T16:49:59.709Z,23.17
2023-05-21T16:55:03.853Z,22.85
2023-05-21T17:00:10.311Z,22.74
2023-05-21T17:05:14.216Z,22.54
2023-05-21T17:10:18.220Z,22.29
2023-05-21T17:15:23.537Z,22.17
2023-05-21T17:20:27.607Z,21.94
2023-05-21T17:25:34.156Z,21.89
2023-05-21T17:30:40.217Z,21.71
2023-05-21T17:35:44.222Z,21.60
2023-05-21T17:40:48.939Z,21.42
2023-05-21T17:45:54.883Z,21.11
2023-05-21T17:50:58.786Z,20.96
2023-05-21T17:56:03.449Z,20.73
2023-05-21T18:01:08.930Z,20.56
2023-05-21T18:06:14.724Z,20.28
2023-05-21T18:11:18.654Z,20.14
2023-05-21T18:16:24.013Z,19.89
2023-05-21T18:21:28.016Z,19.65
2023-05-21T18:26:31.923Z,19.43
2023-05-21T18:31:37.842Z,19.17
2023-05-21T18:36:41.741Z,18.95
2023-05-21T18:41:45.964Z,18.80
2023-05-21T18:46:52.124Z,18.66
2023-05-21T18:51:57.070Z,18.46
2023-05-21T18:57:03.124Z,18.36
2023-05-21T19:02:11.031Z,18.21
2023-05-21T19:07:15.912Z,18.13
2023-05-21T19:12:19.985Z,18.00
2023-05-21T19:17:25.469Z,17.88
2023-05-21T19:22:29.680Z,17.69
2023-05-21T19:27:33.728Z,17.59
2023-05-21T19:32:40.228Z,17.43
2023-05-21T19:37:44.196Z,17.30
2023-05-21T19:42:48.496Z,17.10
2023-05-21T19:47:53.824Z,17.08
2023-05-21T19:52:58.089Z,16.88
2023-05-21T19:58:02.618Z,16.74
2023-05-21T20:03:08.690Z,16.62
2023-05-21T20:08:13.128Z,16.56
2023-05-21T20:13:17.049Z,16.41
2023-05-21T20:18:22.350Z,16.35
2023-05-21T20:23:26.241Z,16.28
2023-05-21T20:28:30.581Z,16.17
2023-05-21T20:33:39.945Z,15.97
2023-05-21T20:38:45.797Z,15.94
2023-05-21T20:43:49.994Z,15.83
2023-05-21T20:48:55.593Z,15.70
2023-05-21T20:53:59.686Z,15.61
2023-05-21T20:59:03.582Z,15.52
2023-05-21T21:04:08.828Z,15.41
2023-05-21T21:09:12.891Z,15.31
2023-05-21T21:14:16.871Z,15.25
2023-05-21T21:19:22.406Z,15.19
2023-05-21T21:24:26.622Z,15.08
2023-05-21T21:29:30.768Z,15.07
2023-05-21T21:34:36.046Z,14.93
2023-05-21T21:39:40.097Z,14.83
2023-05-21T21:44:44.589Z,14.77
2023-05-21T21:49:50.367Z,14.67
2023-05-21T21:54:55.232Z,14.66
2023-05-21T21:59:59.401Z,14.58
2023-05-21T22:05:04.864Z,14.55
2023-05-21T22:10:09.743Z,14.56
2023-05-21T22:15:19.646Z,14.44
2023-05-21T22:20:26.186Z,14.37
2023-05-21T22:25:30.294Z,14.31
2023-05-21T22:30:34.490Z,14.28
2023-05-21T22:35:39.930Z,14.20
2023-05-21T22:40:43.956Z,14.15
2023-05-21T22:45:48.297Z,13.99
2023-05-21T22:50:54.844Z,13.96
2023-05-21T22:55:59.011Z,13.97
2023-05-21T23:01:03.151Z,13.91
2023-05-21T23:06:08.579Z,13.82
2023-05-21T23:11:12.748Z,13.76
2023-05-21T23:16:16.976Z,13.64
2023-05-21T23:21:23.144Z,13.63
2023-05-21T23:26:27.035Z,13.61
2023-05-21T23:31:31.442Z,13.59
2023-05-21T23:36:36.959Z,13.56
2023-05-21T23:41:40.915Z,13.51
2023-05-21T23:46:44.987Z,13.48
2023-05-21T23:51:51.077Z,13.39
2023-05-21T23:56:55.209Z,13.33
